Latest Weather Observations for Townsville Air Weapons Range (Defence)

IDQ60801

Issued at 8:32 pm EST Saturday 16 December 2017 (issued every 30 minutes, with the page automatically refreshed every 10 minutes)

About weather observations | Map of weather stations | Latest weather observations for QLD | Other Formats
Station Details ID: 032196 Name: TOWNSVILLE- AIR WEAPONS RANGE (DEFENCE) Lat: -19.30 Lon: 146.24 Height: 385.45 m
Data from the previous 72 hours. | See also: Recent months at Townsville Air Weapons Range (Defence)
Date/Time
EST
Temp
°C
App
Temp
°C
Dew
Point
°C
Rel
Hum
%
Delta-T
°C
Wind Press
QNH
hPa
Press
MSL
hPa
Rain since
9am
mm
Dir  Spd
km/h
Gust
km/h
Spd
kts
Gust
kts
16/08:30pm 24.0 24.9 20.1 79 2.6 ENE 15 26 8 14 - - 0.0
16/08:00pm 24.3 24.3 19.8 76 2.9 ENE 19 30 10 16 - - 0.0
16/07:30pm 24.7 25.6 20.0 75 3.1 ENE 15 26 8 14 - - 0.0
16/07:00pm 25.4 25.7 19.5 70 3.9 NE 17 24 9 13 - - 0.0
16/06:30pm 26.0 25.7 19.6 68 4.2 ENE 20 37 11 20 - - 0.0
16/06:00pm 26.5 25.1 19.6 66 4.5 ENE 26 35 14 19 - - 0.0
16/05:30pm 27.6 27.0 19.7 62 5.2 ENE 22 33 12 18 - - 0.0
16/05:00pm 28.4 27.5 19.9 60 5.6 ENE 24 35 13 19 - - 0.0
16/04:30pm 29.9 29.4 19.0 52 7.2 ENE 20 30 11 16 - - 0.0
16/04:00pm 30.5 30.1 18.9 50 7.6 ENE 19 28 10 15 - - 0.0
16/03:30pm 30.6 30.5 19.6 51 7.3 ENE 19 30 10 16 - - 0.0
16/03:00pm 30.8 30.1 19.5 51 7.5 ENE 22 33 12 18 - - 0.0
16/02:30pm 29.9 27.8 19.0 52 7.2 NE 28 37 15 20 - - 0.0
16/02:00pm 31.4 31.0 19.4 49 8.0 NE 20 32 11 17 - - 0.0
16/01:30pm 31.8 30.7 18.7 45 8.6 ENE 22 39 12 21 - - 0.0
16/01:00pm 31.3 31.1 17.6 44 8.9 ENE 15 24 8 13 - - 0.0
16/12:30pm 32.5 32.0 16.8 39 10.1 ENE 15 24 8 13 - - 0.0
16/12:00pm 31.7 30.6 16.4 39 9.8 E 17 30 9 16 - - 0.0
16/11:30am 30.7 29.4 15.9 40 9.3 ENE 17 30 9 16 - - 0.0
16/11:00am 31.0 30.4 16.6 42 9.2 NE 15 28 8 15 - - 0.0
16/10:30am 30.0 29.2 16.1 43 8.8 ENE 15 30 8 16 - - 0.0
16/10:00am 30.3 30.5 17.7 46 8.1 ENE 13 22 7 12 - - 0.0
16/09:30am 29.0 28.9 17.8 50 7.2 ENE 15 26 8 14 - - 0.0
16/09:00am 28.4 29.0 18.5 55 6.4 ENE 13 19 7 10 - - 0.0
16/08:30am 26.4 27.0 18.5 62 5.1 ENE 13 20 7 11 - - 0.0
16/08:00am 27.1 27.7 19.4 62 5.1 E 15 20 8 11 - - 0.0
16/07:30am 25.6 27.8 19.7 70 3.9 E 7 17 4 9 - - 0.0
16/07:00am 24.7 27.4 20.2 76 3.0 E 6 7 3 4 - - 0.0
16/06:30am 23.1 25.5 20.1 83 2.0 NE 7 9 4 5 - - 0.0
16/06:00am 21.5 23.7 19.6 89 1.2 NE 7 9 4 5 - - 0.0
16/05:30am 21.6 23.8 19.7 89 1.2 NNE 7 9 4 5 - - 0.0
16/05:00am 21.7 24.1 19.6 88 1.4 NE 6 7 3 4 - - 0.0
16/04:30am 21.9 25.4 19.5 86 1.6 CALM 0 0 0 0 - - 0.0
16/04:00am 21.7 24.8 19.4 87 1.5 ENE 2 4 1 2 - - 0.0
16/03:30am 21.9 25.3 19.3 85 1.7 CALM 0 0 0 0 - - 0.0
16/03:00am 22.1 24.7 19.3 84 1.8 NNE 4 9 2 5 - - 0.0
16/02:30am 22.5 24.3 19.5 83 1.9 NE 9 17 5 9 - - 0.0
16/02:00am 22.7 23.0 19.5 82 2.1 ENE 17 24 9 13 - - 0.0
16/01:30am 22.7 22.4 19.5 82 2.1 ENE 20 32 11 17 - - 0.0
16/01:00am 22.7 22.5 19.3 81 2.2 ENE 19 30 10 16 - - 0.0
16/12:30am 22.8 23.4 18.6 77 2.7 ENE 13 24 7 13 - - 0.0
16/12:00am 22.9 23.2 18.7 77 2.7 NE 15 19 8 10 - - 0.0
 
Date/Time
EST
Temp
°C
App
Temp
°C
Dew
Point
°C
Rel
Hum
%
Delta-T
°C
Wind Press
QNH
hPa
Press
MSL
hPa
Rain since
9am
mm
Dir  Spd
km/h
Gust
km/h
Spd
kts
Gust
kts
15/11:30pm 22.9 23.8 19.3 80 2.3 NE 13 20 7 11 - - 0.0
15/11:00pm 23.0 23.8 19.0 78 2.6 ENE 13 28 7 15 - - 0.0
15/10:30pm 23.1 23.5 19.1 78 2.6 ENE 15 20 8 11 - - 0.0
15/10:00pm 23.3 23.7 18.2 73 3.2 ENE 13 20 7 11 - - 0.0
15/09:30pm 23.3 24.4 18.8 76 2.9 NE 11 19 6 10 - - 0.0
15/09:00pm 23.5 23.8 19.6 79 2.5 ENE 17 26 9 14 - - 0.0
15/08:30pm 23.6 24.8 19.1 76 2.9 ENE 11 20 6 11 - - 0.0
15/08:00pm 23.9 23.9 19.0 74 3.2 ENE 17 22 9 12 - - 0.0
15/07:30pm 24.1 24.0 18.7 72 3.5 NE 17 24 9 13 - - 0.0
15/07:00pm 24.6 23.9 18.3 68 4.0 NE 19 32 10 17 - - 0.0
15/06:30pm 25.4 24.5 18.3 65 4.6 NE 20 28 11 15 - - 0.0
15/06:00pm 26.1 25.1 18.8 64 4.7 ENE 22 35 12 19 - - 0.0
15/05:30pm 27.3 26.2 18.6 59 5.6 NE 22 33 12 18 - - 0.0
15/05:00pm 28.9 28.6 19.5 57 6.2 ENE 20 32 11 17 - - 0.0
15/04:30pm 29.0 28.2 19.3 55 6.4 ENE 22 35 12 19 - - 0.0
15/04:00pm 30.0 28.7 19.1 52 7.2 ENE 24 35 13 19 - - 0.0
15/03:30pm 30.4 28.6 18.8 50 7.6 ENE 26 37 14 20 - - 0.0
15/03:00pm 30.6 28.2 18.3 47 8.0 ENE 28 37 15 20 - - 0.0
15/02:30pm 32.4 30.7 18.2 42 9.3 E 24 33 13 18 - - 0.0
15/02:00pm 31.4 30.5 17.7 44 8.9 ENE 19 32 10 17 - - 0.0
15/01:30pm 32.5 31.9 17.5 40 9.7 NE 17 28 9 15 - - 0.0
15/01:00pm 31.8 32.1 16.9 40 9.6 NE 11 22 6 12 - - 0.0
15/12:30pm 32.4 31.3 16.3 38 10.3 E 17 28 9 15 - - 0.0
15/12:00pm 32.1 32.0 16.0 38 10.2 ENE 11 28 6 15 - - 0.0
15/11:30am 32.6 32.4 16.8 38 10.2 ENE 13 24 7 13 - - 0.0
15/11:00am 30.3 30.6 16.0 42 9.0 ENE 9 19 5 10 - - 0.0
15/10:30am 31.3 32.2 17.6 44 8.9 ENE 9 20 5 11 - - 0.0
15/10:00am 28.9 30.1 16.8 48 7.7 NNE 6 15 3 8 - - 0.0
15/09:30am 28.3 29.9 17.8 53 6.8 NNE 6 17 3 9 - - 0.0
15/09:00am 27.9 29.4 18.0 55 6.4 ENE 7 13 4 7 - - 0.0
15/08:30am 27.4 27.8 18.1 57 6.0 ENE 13 19 7 10 - - 0.0
15/08:00am 26.7 27.9 18.3 60 5.4 E 9 20 5 11 - - 0.0
15/07:30am 25.7 27.2 18.9 66 4.4 ENE 9 17 5 9 - - 0.0
15/07:00am 24.8 26.6 19.6 73 3.4 E 9 11 5 6 - - 0.0
15/06:30am 23.3 26.2 19.9 81 2.2 E 4 6 2 3 - - 0.0
15/06:00am 21.8 24.2 19.7 88 1.4 ENE 6 7 3 4 - - 0.0
15/05:30am 21.6 22.9 19.3 87 1.5 ENE 11 17 6 9 - - 0.0
15/05:00am 21.7 23.4 19.4 87 1.5 ENE 9 13 5 7 - - 0.0
15/04:30am 21.7 23.4 19.4 87 1.5 ENE 9 13 5 7 - - 0.0
15/04:00am 21.8 23.4 19.2 85 1.7 ENE 9 13 5 7 - - 0.0
15/03:30am 22.1 24.3 19.3 84 1.8 ENE 6 9 3 5 - - 0.0
15/03:00am 22.1 24.3 19.3 84 1.8 ENE 6 9 3 5 - - 0.0
15/02:30am 22.3 23.5 19.1 82 2.1 NE 11 15 6 8 - - 0.0
15/02:00am 22.5 22.9 18.9 80 2.3 ENE 15 24 8 13 - - 0.0
15/01:30am 22.5 23.4 19.3 82 2.1 NE 13 20 7 11 - - 0.0
15/01:00am 22.6 22.9 19.6 83 1.9 ENE 17 22 9 12 - - 0.0
15/12:30am 22.6 23.6 19.4 82 2.1 ENE 13 19 7 10 - - 0.0
15/12:00am 22.7 23.4 19.7 83 2.0 ENE 15 20 8 11 - - 0.0
 
Date/Time
EST
Temp
°C
App
Temp
°C
Dew
Point
°C
Rel
Hum
%
Delta-T
°C
Wind Press
QNH
hPa
Press
MSL
hPa
Rain since
9am
mm
Dir  Spd
km/h
Gust
km/h
Spd
kts
Gust
kts
14/11:30pm 22.9 23.5 19.5 81 2.2 ENE 15 20 8 11 - - 0.0
14/11:00pm 23.1 23.4 19.5 80 2.3 ENE 17 26 9 14 - - 0.0
14/10:30pm 23.2 23.1 19.6 80 2.3 ENE 19 26 10 14 - - 0.0
14/10:00pm 23.4 23.3 19.5 79 2.5 NE 19 30 10 16 - - 0.0
14/09:30pm 23.3 23.4 19.2 78 2.7 NE 17 24 9 13 - - 0.0
14/09:00pm 23.4 23.1 19.1 77 2.8 NE 19 28 10 15 - - 0.0
14/08:30pm 23.5 23.1 19.0 76 2.9 ENE 19 28 10 15 - - 0.0
14/08:00pm 23.7 23.3 18.8 74 3.2 NE 19 30 10 16 - - 0.0
14/07:30pm 24.1 23.2 18.3 70 3.7 ENE 20 35 11 19 - - 0.0
14/07:00pm 24.5 23.7 18.4 69 3.9 ENE 20 33 11 18 - - 0.0
14/06:30pm 25.1 23.2 18.5 67 4.2 NE 26 37 14 20 - - 0.0
14/06:00pm 26.3 25.9 18.9 63 4.8 ENE 19 28 10 15 - - 0.0
14/05:30pm 27.7 27.3 19.0 59 5.7 ENE 19 32 10 17 - - 0.0
14/05:00pm 28.8 28.3 19.1 55 6.4 ENE 20 32 11 17 - - 0.0
14/04:30pm 29.2 28.0 18.3 51 7.1 ENE 22 33 12 18 - - 0.0
14/04:00pm 30.2 28.7 17.6 46 8.1 ENE 22 37 12 20 - - 0.0
14/03:30pm 31.4 29.1 16.6 41 9.5 ENE 24 35 13 19 - - 0.0
14/03:00pm 32.7 31.7 16.5 37 10.4 E 17 32 9 17 - - 0.0
14/02:30pm 32.5 31.2 15.9 36 10.5 E 17 26 9 14 - - 0.0
14/02:00pm 32.9 31.6 15.8 35 10.9 ENE 17 28 9 15 - - 0.0
14/01:30pm 32.5 30.6 10.5 26 12.9 E 11 20 6 11 - - 0.0
14/01:00pm 33.2 31.6 12.8 29 12.4 E 13 32 7 17 - - 0.0
14/12:30pm 32.0 31.7 13.2 31 11.4 ENE 7 13 4 7 - - 0.0
14/12:00pm 30.4 30.1 12.8 34 10.6 NE 6 17 3 9 - - 0.0
14/11:30am 31.1 30.3 12.9 32 11.0 ESE 9 19 5 10 - - 0.0
14/11:00am 31.1 29.5 12.9 32 11.0 ENE 13 22 7 12 - - 0.0
14/10:30am 30.0 28.8 14.1 37 9.7 E 13 22 7 12 - - 0.0
14/10:00am 29.4 29.1 15.5 43 8.7 E 11 19 6 10 - - 0.0
14/09:30am 28.6 29.5 16.5 48 7.6 E 7 13 4 7 - - 0.0
14/09:00am 27.5 28.7 16.8 52 6.8 NE 6 11 3 6 - - 0.0
14/08:30am 26.5 27.4 16.7 55 6.2 ENE 7 13 4 7 - - 0.0
14/08:00am 25.5 26.8 17.2 60 5.2 E 6 11 3 6 - - 0.0
14/07:30am 24.1 26.7 18.3 70 3.7 ESE 2 7 1 4 - - 0.0
14/07:00am 22.8 26.1 19.0 79 2.4 CALM 0 4 0 2 - - 0.0
14/06:30am 21.1 24.4 19.0 88 1.3 CALM 0 0 0 0 - - 0.0
14/06:00am 19.7 22.7 18.5 93 0.8 CALM 0 2 0 1 - - 0.0
14/05:30am 19.6 21.4 18.3 92 0.8 E 6 6 3 3 - - 0.0
14/05:00am 20.4 23.5 18.7 90 1.1 CALM 0 0 0 0 - - 0.0
14/04:30am 20.8 22.8 19.1 90 1.1 NE 7 9 4 5 - - 0.0
14/04:00am 20.6 23.0 18.7 89 1.2 ESE 4 4 2 2 - - 0.0
14/03:30am 21.2 23.3 18.9 87 1.5 ENE 6 7 3 4 - - 0.0
14/03:00am 21.2 23.5 18.6 85 1.7 ENE 4 6 2 3 - - 0.0
14/02:30am 21.4 23.3 18.6 84 1.8 NE 6 7 3 4 - - 0.0
14/02:00am 21.7 23.0 18.5 82 2.0 NE 9 13 5 7 - - 0.0
14/01:30am 21.7 22.9 18.3 81 2.2 ENE 9 13 5 7 - - 0.0
14/01:00am 21.9 22.8 18.5 81 2.2 ENE 11 15 6 8 - - 0.0
14/12:30am 22.0 23.7 18.4 80 2.3 ENE 7 13 4 7 - - 0.0
14/12:00am 22.4 23.1 18.8 80 2.3 NE 13 20 7 11 - - 0.0
 
Date/Time
EST
Temp
°C
App
Temp
°C
Dew
Point
°C
Rel
Hum
%
Delta-T
°C
Wind Press
QNH
hPa
Press
MSL
hPa
Rain since
9am
mm
Dir  Spd
km/h
Gust
km/h
Spd
kts
Gust
kts
13/11:30pm 22.5 23.0 19.3 82 2.1 ENE 15 24 8 13 - - 0.0
13/11:00pm 22.6 23.6 19.4 82 2.1 NE 13 20 7 11 - - 0.0
13/10:30pm 22.8 23.9 19.6 82 2.1 ENE 13 20 7 11 - - 0.0
13/10:00pm 22.9 23.4 19.3 80 2.3 ENE 15 22 8 12 - - 0.0
13/09:30pm 23.0 23.5 19.2 79 2.5 ENE 15 24 8 13 - - 0.0
13/09:00pm 23.1 23.5 19.1 78 2.6 ENE 15 20 8 11 - - 0.0

Other Formats:

Comma delimited format used in spreadsheet applications
http://www.bom.gov.au/fwo/IDQ60801/IDQ60801.94271.axf

JavaScript Object Notation format (JSON) in row-major order
http://www.bom.gov.au/fwo/IDQ60801/IDQ60801.94271.json